Bega, New South Wales

7:00 PM AEST on August 29, 2016 (GMT +1000)
Buckajo | | Change Station

Elev 371 ft 36.69 °S, 149.79 °E | Updated 10 seconds ago

Clear
Clear
67.6 °F
Feels Like 67.6 °F
N
2.7
Wind Variable Wind from SSE
Gusts 6.9 mph

Today
High -- | Low -- °F
--% Chance of Precip.
Yesterday
High -- | Low -- °F
Precip. -- in
Pressure 30.27 in
Visibility 6.2 miles
Clouds
Dew Point 43 °F
Humidity 41%
Rainfall 0.00 in
Snow Depth Not available.
6:25 AM 5:38 PM
Waning Crescent, 10% visible
METAR YMER 290800Z AUTO 00000KT 9999 // NCD 13/09 Q1025
Pressure 30.27 in
Visibility 6.2 miles
Clouds
Dew Point 43 °F
Humidity 41%
Rainfall 0.00 in
Snow Depth Not available.
6:25 AM 5:38 PM
Waning Crescent, 10% visible
METAR YMER 290800Z AUTO 00000KT 9999 // NCD 13/09 Q1025

10-Day Weather Forecast

No radar image for this location.
×

Almanac

Astronomy

Aug. 29, 2016 Rise Set
Actual Time
Civil Twilight
Nautical Twilight
Astronomical Twilight
Moon
Length of Visible Light
Length of Day
Tomorrow will be .
, % of the Moon is Illuminated

Today's Extremes

Country Highs Country Lows

Community

WunderPhotos

Upload Photos

1,935,800 photos uploaded!

WunderBlog® & News

Nearby

Air Quality

  Air Quality AQ Index Pollutant
Not available.

Snow Depth

Station Depth Elevation

Earthquake Activity

City Distance Mag. Time & Date
Minimum magnitude displayed is 2.5.

Coastal Water Temperatures

Place Temperature

Stations

Nearby Weather Stations

Station Location Temp. Windchill Dew Point Humidity Wind Precip. Elev Updated Type